createdAt,value
2022-11-07T00:01:45.640Z,4.88
2022-11-07T00:04:13.126Z,5.68
2022-11-07T00:06:40.689Z,5.57
2022-11-07T00:09:08.110Z,6.00
2022-11-07T00:11:35.570Z,5.18
2022-11-07T00:14:02.942Z,5.80
2022-11-07T00:16:30.686Z,5.00
2022-11-07T00:18:58.158Z,5.15
2022-11-07T00:21:25.616Z,5.10
2022-11-07T00:23:53.016Z,5.28
2022-11-07T00:26:20.472Z,5.20
2022-11-07T00:28:48.011Z,4.72
2022-11-07T00:31:15.626Z,5.60
2022-11-07T00:33:43.488Z,5.05
2022-11-07T00:36:11.825Z,5.20
2022-11-07T00:38:39.328Z,5.32
2022-11-07T00:41:07.488Z,4.72
2022-11-07T00:43:35.205Z,5.78
2022-11-07T00:46:03.440Z,5.25
2022-11-07T00:48:31.906Z,5.13
2022-11-07T00:51:05.324Z,5.45
2022-11-07T00:53:32.718Z,5.45
2022-11-07T00:56:07.807Z,6.05
2022-11-07T01:01:09.241Z,4.82
2022-11-07T01:03:55.816Z,5.33
2022-11-07T01:06:23.552Z,4.97
2022-11-07T01:08:51.805Z,5.20
2022-11-07T01:11:19.326Z,4.95
2022-11-07T01:13:46.692Z,4.70
2022-11-07T01:16:14.238Z,5.00
2022-11-07T01:18:42.034Z,6.00
2022-11-07T01:21:16.109Z,5.15
2022-11-07T01:23:44.286Z,5.15
2022-11-07T01:26:12.663Z,5.15
2022-11-07T01:28:40.522Z,5.13
2022-11-07T01:31:09.405Z,5.15
2022-11-07T01:33:37.248Z,5.28
2022-11-07T01:36:06.313Z,5.28
2022-11-07T01:38:33.948Z,4.80
2022-11-07T01:41:19.701Z,5.22
2022-11-07T01:43:53.246Z,4.85
2022-11-07T01:46:21.711Z,5.63
2022-11-07T01:48:52.565Z,5.22
2022-11-07T01:51:20.758Z,5.22
2022-11-07T01:53:48.246Z,5.10
2022-11-07T01:56:17.347Z,5.90
2022-11-07T01:58:45.709Z,4.82
2022-11-07T02:01:13.495Z,5.35
2022-11-07T02:03:40.981Z,5.82
2022-11-07T02:06:10.392Z,5.18
2022-11-07T02:08:39.780Z,5.55
2022-11-07T02:11:07.538Z,5.85
2022-11-07T02:13:34.945Z,4.90
2022-11-07T02:16:03.931Z,5.03
2022-11-07T02:18:31.862Z,6.30
2022-11-07T02:21:02.145Z,6.25
2022-11-07T02:23:49.858Z,5.38
2022-11-07T02:26:17.419Z,5.22
2022-11-07T02:28:45.423Z,5.50
2022-11-07T02:31:12.782Z,6.10
2022-11-07T02:33:40.131Z,5.35
2022-11-07T02:36:09.587Z,6.05
2022-11-07T02:38:37.491Z,5.97
2022-11-07T02:41:07.486Z,5.22
2022-11-07T02:43:36.010Z,5.68
2022-11-07T02:46:06.286Z,5.70
2022-11-07T02:48:41.065Z,5.90
2022-11-07T02:51:08.472Z,5.95
2022-11-07T02:53:36.081Z,6.13
2022-11-07T02:56:03.548Z,5.55
2022-11-07T02:58:30.977Z,6.43
2022-11-07T03:01:03.070Z,5.97
2022-11-07T03:03:30.857Z,5.80
2022-11-07T03:05:58.203Z,6.05
2022-11-07T03:08:25.613Z,5.75
2022-11-07T03:10:52.965Z,5.85
2022-11-07T03:13:20.464Z,5.45
2022-11-07T03:15:47.838Z,6.20
2022-11-07T03:18:15.275Z,5.90
2022-11-07T03:20:42.706Z,5.88
2022-11-07T03:23:10.316Z,6.20
2022-11-07T03:25:37.735Z,5.57
2022-11-07T03:28:05.255Z,6.10
2022-11-07T03:30:32.721Z,5.93
2022-11-07T03:33:00.099Z,5.75
2022-11-07T03:35:28.010Z,7.28
2022-11-07T03:37:55.478Z,5.97
2022-11-07T03:40:22.931Z,6.18
2022-11-07T03:42:50.291Z,6.22
2022-11-07T03:45:18.119Z,5.93
2022-11-07T03:47:46.513Z,6.40
2022-11-07T03:50:16.437Z,5.90
2022-11-07T03:52:44.054Z,6.35
2022-11-07T03:55:12.139Z,6.18
2022-11-07T03:57:39.670Z,6.25
2022-11-07T04:00:07.401Z,6.25
2022-11-07T04:02:39.754Z,6.60
2022-11-07T04:05:07.706Z,6.43
2022-11-07T04:07:35.078Z,6.15
2022-11-07T04:10:02.489Z,6.18
2022-11-07T04:12:48.480Z,6.38
2022-11-07T04:15:34.375Z,5.50
2022-11-07T04:18:01.846Z,6.82
2022-11-07T04:20:29.554Z,6.65
2022-11-07T04:22:56.954Z,6.15
2022-11-07T04:25:44.362Z,6.57
2022-11-07T04:28:11.845Z,6.72
2022-11-07T04:30:39.261Z,6.35
2022-11-07T04:33:06.681Z,6.40
2022-11-07T04:35:34.233Z,6.35
2022-11-07T04:38:01.972Z,6.15
2022-11-07T04:40:29.931Z,6.25
2022-11-07T04:42:57.357Z,6.95
2022-11-07T04:45:25.002Z,6.25
2022-11-07T04:47:52.368Z,6.63
2022-11-07T04:50:20.614Z,7.32
2022-11-07T04:52:48.387Z,7.40
2022-11-07T04:55:20.856Z,6.80
2022-11-07T04:57:48.712Z,6.60
2022-11-07T05:00:16.694Z,6.47
2022-11-07T05:02:44.264Z,6.78
2022-11-07T05:05:12.257Z,6.75
2022-11-07T05:07:40.068Z,7.78
2022-11-07T05:10:11.973Z,6.50
2022-11-07T05:12:39.889Z,7.00
2022-11-07T05:15:08.014Z,7.90
2022-11-07T05:17:35.396Z,7.20
2022-11-07T05:20:02.850Z,7.13
2022-11-07T05:22:53.612Z,7.38
2022-11-07T05:25:23.552Z,7.30
2022-11-07T05:27:55.405Z,7.55
2022-11-07T05:30:22.800Z,7.07
2022-11-07T05:32:50.165Z,7.28
2022-11-07T05:35:17.602Z,8.02
2022-11-07T05:37:45.022Z,7.05
2022-11-07T05:40:12.623Z,7.13
2022-11-07T05:42:39.985Z,7.55
2022-11-07T05:45:07.823Z,7.50
2022-11-07T05:47:35.173Z,7.97
2022-11-07T05:50:02.583Z,8.13
2022-11-07T05:52:29.937Z,7.50
2022-11-07T05:54:57.393Z,7.07
2022-11-07T05:57:24.739Z,7.70
2022-11-07T05:59:52.199Z,8.10
2022-11-07T06:02:19.690Z,7.47
2022-11-07T06:04:47.318Z,7.68
2022-11-07T06:07:14.683Z,7.90
2022-11-07T06:09:42.094Z,7.72
2022-11-07T06:12:09.565Z,7.65
2022-11-07T06:14:37.100Z,7.47
2022-11-07T06:17:04.631Z,7.70
2022-11-07T06:19:32.038Z,7.63
2022-11-07T06:22:00.993Z,8.27
2022-11-07T06:24:28.387Z,8.60
2022-11-07T06:26:55.834Z,8.13
2022-11-07T06:29:23.184Z,8.10
2022-11-07T06:31:50.610Z,7.82
2022-11-07T06:34:17.944Z,8.20
2022-11-07T06:36:50.693Z,7.80
2022-11-07T06:39:24.211Z,7.78
2022-11-07T06:41:54.534Z,8.82
2022-11-07T06:44:22.040Z,7.80
2022-11-07T06:46:49.418Z,8.00
2022-11-07T06:49:16.956Z,8.13
2022-11-07T06:51:47.877Z,7.95
2022-11-07T06:54:15.627Z,9.55
2022-11-07T06:56:42.978Z,8.18
2022-11-07T06:59:10.365Z,7.95
2022-11-07T07:01:37.981Z,8.95
2022-11-07T07:04:05.582Z,8.30
2022-11-07T07:06:32.961Z,7.95
2022-11-07T07:09:00.353Z,8.43
2022-11-07T07:11:27.849Z,9.05
2022-11-07T07:14:01.955Z,7.55
2022-11-07T07:16:29.689Z,10.07
2022-11-07T07:18:57.042Z,9.10
2022-11-07T07:21:24.487Z,8.02
2022-11-07T07:23:51.859Z,8.18
2022-11-07T07:26:19.267Z,7.80
2022-11-07T07:28:46.695Z,7.43
2022-11-07T07:31:14.087Z,8.63
2022-11-07T07:33:42.139Z,8.43
2022-11-07T07:36:09.946Z,8.52
2022-11-07T07:38:37.337Z,8.73
2022-11-07T07:41:04.945Z,7.60
2022-11-07T07:43:32.338Z,8.80
2022-11-07T07:46:00.522Z,8.32
2022-11-07T07:48:28.234Z,8.75
2022-11-07T07:50:56.050Z,8.25
2022-11-07T07:53:23.838Z,9.20
2022-11-07T07:55:51.452Z,9.02
2022-11-07T07:58:18.838Z,8.05
2022-11-07T08:00:46.235Z,8.18
2022-11-07T08:03:14.453Z,8.00
2022-11-07T08:05:42.139Z,7.40
2022-11-07T08:08:09.577Z,8.25
2022-11-07T08:10:42.528Z,9.23
2022-11-07T08:13:10.370Z,8.98
2022-11-07T08:15:37.810Z,8.15
2022-11-07T08:18:05.707Z,7.70
2022-11-07T08:20:33.281Z,8.10
2022-11-07T08:23:04.703Z,7.40
2022-11-07T08:25:32.148Z,8.90
2022-11-07T08:27:59.542Z,10.25
2022-11-07T08:30:27.128Z,11.07
2022-11-07T08:32:54.774Z,9.13
2022-11-07T08:35:22.265Z,9.45
2022-11-07T08:37:49.661Z,8.00
2022-11-07T08:40:17.070Z,8.20
2022-11-07T08:42:45.695Z,7.60
2022-11-07T08:45:13.139Z,8.35
2022-11-07T08:47:40.534Z,7.95
2022-11-07T08:50:08.115Z,8.32
2022-11-07T08:52:36.233Z,8.65
2022-11-07T08:55:04.790Z,8.68
2022-11-07T08:57:32.176Z,8.82
2022-11-07T08:59:59.634Z,8.32
2022-11-07T09:03:08.447Z,7.03
2022-11-07T09:05:14.744Z,8.20
2022-11-07T09:07:42.155Z,7.78
2022-11-07T09:10:09.771Z,7.60
2022-11-07T09:12:37.185Z,8.15
2022-11-07T09:15:04.610Z,6.82
2022-11-07T09:17:32.071Z,7.35
2022-11-07T09:19:59.434Z,7.32
2022-11-07T09:22:26.928Z,7.20
2022-11-07T09:24:54.371Z,6.75
2022-11-07T09:27:21.723Z,7.40
2022-11-07T09:29:49.115Z,7.07
2022-11-07T09:32:42.665Z,6.43
2022-11-07T09:35:05.190Z,6.55
2022-11-07T09:37:32.742Z,7.07
2022-11-07T09:40:00.242Z,6.55
2022-11-07T09:42:45.596Z,6.72
2022-11-07T09:47:44.990Z,6.90
2022-11-07T09:50:18.409Z,5.57
2022-11-07T09:53:12.033Z,6.90
2022-11-07T09:55:42.542Z,6.40
2022-11-07T09:58:25.727Z,6.15
2022-11-07T10:00:53.941Z,6.32
2022-11-07T10:03:21.388Z,6.60
2022-11-07T10:05:54.696Z,8.60
2022-11-07T10:08:26.548Z,8.68
2022-11-07T10:10:59.936Z,6.00
2022-11-07T10:14:02.682Z,6.10
2022-11-07T10:16:47.743Z,6.53
2022-11-07T10:19:25.050Z,7.97
2022-11-07T10:21:58.545Z,7.30
2022-11-07T10:24:35.375Z,7.18
2022-11-07T10:27:02.976Z,7.22
2022-11-07T10:29:35.780Z,7.20
2022-11-07T10:32:13.871Z,8.23
2022-11-07T10:34:56.483Z,8.60
2022-11-07T10:37:24.145Z,7.30
2022-11-07T10:39:51.496Z,6.95
2022-11-07T10:42:20.782Z,8.95
2022-11-07T10:44:48.656Z,8.70
2022-11-07T10:47:17.511Z,7.65
2022-11-07T10:49:54.301Z,6.88
2022-11-07T10:52:22.052Z,7.95
2022-11-07T10:54:49.512Z,7.50
2022-11-07T10:57:18.277Z,7.60
2022-11-07T10:59:47.562Z,9.20
2022-11-07T11:02:22.705Z,7.88
2022-11-07T11:05:00.561Z,8.50
2022-11-07T11:07:37.079Z,7.70
2022-11-07T11:10:05.490Z,7.40
2022-11-07T11:12:34.719Z,6.97
2022-11-07T11:15:05.428Z,6.72
2022-11-07T11:17:33.735Z,6.55
2022-11-07T11:20:01.151Z,6.68
2022-11-07T11:22:29.270Z,6.70
2022-11-07T11:25:02.845Z,6.20
2022-11-07T11:27:32.372Z,6.20
2022-11-07T11:30:07.212Z,5.85
2022-11-07T11:32:40.515Z,5.85
2022-11-07T11:35:26.384Z,6.22
2022-11-07T11:37:59.169Z,10.07
2022-11-07T11:40:26.603Z,8.48
2022-11-07T11:42:56.930Z,8.38
2022-11-07T11:45:44.549Z,7.13
2022-11-07T11:48:26.975Z,7.63
2022-11-07T11:51:05.993Z,6.80
2022-11-07T11:53:33.427Z,6.85
2022-11-07T11:56:00.732Z,6.32
2022-11-07T11:58:44.857Z,6.00
2022-11-07T12:01:19.173Z,6.25
2022-11-07T12:03:49.602Z,7.07
2022-11-07T12:06:18.792Z,6.93
2022-11-07T12:08:55.438Z,6.57
2022-11-07T12:11:22.870Z,5.47
2022-11-07T12:13:56.054Z,6.93
2022-11-07T12:16:28.095Z,5.63
2022-11-07T12:19:14.007Z,7.15
2022-11-07T12:21:49.167Z,6.95
2022-11-07T12:24:19.657Z,6.70
2022-11-07T12:26:59.517Z,6.55
2022-11-07T12:29:45.569Z,7.15
2022-11-07T12:32:15.856Z,6.50
2022-11-07T12:34:52.407Z,7.68
2022-11-07T12:37:29.294Z,6.53
2022-11-07T12:39:59.467Z,6.05
2022-11-07T12:42:29.958Z,7.07
2022-11-07T12:44:57.438Z,11.02
2022-11-07T12:47:24.778Z,7.25
2022-11-07T12:50:07.706Z,7.07
2022-11-07T12:52:53.904Z,9.73
2022-11-07T12:55:23.932Z,7.25
2022-11-07T12:57:52.878Z,6.72
2022-11-07T13:00:29.096Z,7.10
2022-11-07T13:02:57.112Z,6.30
2022-11-07T13:05:33.590Z,6.55
2022-11-07T13:08:05.223Z,37.35
2022-11-07T13:10:37.260Z,6.68
2022-11-07T13:13:27.890Z,14.02
2022-11-07T13:16:14.476Z,6.65
2022-11-07T13:18:42.350Z,7.35
2022-11-07T13:21:09.932Z,13.00
2022-11-07T13:23:37.318Z,24.55
2022-11-07T13:26:20.373Z,16.67
2022-11-07T13:28:58.218Z,31.05
2022-11-07T13:31:34.885Z,12.45
2022-11-07T13:34:11.392Z,6.95
2022-11-07T13:36:39.603Z,22.73
2022-11-07T13:39:08.101Z,15.02
2022-11-07T13:41:35.520Z,13.93
2022-11-07T13:44:16.648Z,7.75
2022-11-07T13:46:46.255Z,8.55
2022-11-07T13:49:18.734Z,10.05
2022-11-07T13:51:50.537Z,9.55
2022-11-07T13:54:18.254Z,7.90
2022-11-07T13:57:00.927Z,10.63
2022-11-07T13:59:40.721Z,7.53
2022-11-07T14:02:08.331Z,10.00
2022-11-07T14:04:44.790Z,8.30
2022-11-07T14:07:26.316Z,7.45
2022-11-07T14:09:58.630Z,8.82
2022-11-07T14:12:26.501Z,8.48
2022-11-07T14:14:55.945Z,9.70
2022-11-07T14:17:25.587Z,7.00
2022-11-07T14:19:53.072Z,7.22
2022-11-07T14:22:24.808Z,8.20
2022-11-07T14:24:53.636Z,16.67
2022-11-07T14:27:22.043Z,12.25
2022-11-07T14:29:56.290Z,16.80
2022-11-07T14:32:26.927Z,13.93
2022-11-07T14:34:56.844Z,10.85
2022-11-07T14:37:26.015Z,13.50
2022-11-07T14:39:53.981Z,31.08
2022-11-07T14:42:25.406Z,46.30
2022-11-07T14:44:55.377Z,28.50
2022-11-07T14:47:24.926Z,13.57
2022-11-07T14:49:53.003Z,11.65
2022-11-07T14:52:20.637Z,9.57
2022-11-07T14:54:48.808Z,13.25
2022-11-07T14:57:16.416Z,16.02
2022-11-07T14:59:44.112Z,30.33
2022-11-07T15:02:14.291Z,20.35
2022-11-07T15:04:46.441Z,14.40
2022-11-07T15:07:27.300Z,14.55
2022-11-07T15:09:55.894Z,13.77
2022-11-07T15:12:27.670Z,14.45
2022-11-07T15:15:21.202Z,12.57
2022-11-07T15:17:52.511Z,16.90
2022-11-07T15:20:35.226Z,21.92
2022-11-07T15:23:04.385Z,30.02
2022-11-07T15:25:38.959Z,41.13
2022-11-07T15:28:19.732Z,39.13
2022-11-07T15:30:47.903Z,27.05
2022-11-07T15:33:17.283Z,27.33
2022-11-07T15:35:46.002Z,22.08
2022-11-07T15:38:39.810Z,18.00
2022-11-07T15:41:07.254Z,16.65
2022-11-07T15:43:34.685Z,15.35
2022-11-07T15:46:03.003Z,21.13
2022-11-07T15:48:36.861Z,16.27
2022-11-07T15:51:09.520Z,13.18
2022-11-07T15:53:37.033Z,13.13
2022-11-07T15:56:06.041Z,14.23
2022-11-07T15:58:33.456Z,18.08
2022-11-07T16:01:01.071Z,20.85
2022-11-07T16:03:28.690Z,22.20
2022-11-07T16:05:58.411Z,45.25
2022-11-07T16:08:25.938Z,48.28
2022-11-07T16:10:58.466Z,38.55
2022-11-07T16:13:25.896Z,30.25
2022-11-07T16:16:00.926Z,28.13
2022-11-07T16:20:55.718Z,23.88
2022-11-07T16:23:23.139Z,24.77
2022-11-07T16:25:51.711Z,24.55
2022-11-07T16:28:26.409Z,31.88
2022-11-07T16:30:56.200Z,30.65
2022-11-07T16:33:23.960Z,28.70
2022-11-07T16:35:52.768Z,23.80
2022-11-07T16:38:21.130Z,22.17
2022-11-07T16:40:48.576Z,23.00
2022-11-07T16:43:16.436Z,22.73
2022-11-07T16:45:47.978Z,22.65
2022-11-07T16:48:23.283Z,23.25
2022-11-07T16:50:51.131Z,22.25
2022-11-07T16:53:18.534Z,23.55
2022-11-07T16:55:53.484Z,25.10
2022-11-07T16:58:29.245Z,24.85
2022-11-07T17:03:24.171Z,25.42
2022-11-07T17:05:55.960Z,26.92
2022-11-07T17:08:37.109Z,27.50
2022-11-07T17:11:04.948Z,27.90
2022-11-07T17:13:32.423Z,28.63
2022-11-07T17:16:00.226Z,28.92
2022-11-07T17:18:27.964Z,29.73
2022-11-07T17:20:55.846Z,31.23
2022-11-07T17:23:29.686Z,28.77
2022-11-07T17:26:02.375Z,28.88
2022-11-07T17:28:29.874Z,29.70
2022-11-07T17:30:57.399Z,29.13
2022-11-07T17:33:24.795Z,34.40
2022-11-07T17:35:54.965Z,36.70
2022-11-07T17:38:22.501Z,38.10
2022-11-07T17:40:49.867Z,37.00
2022-11-07T17:43:18.030Z,34.50
2022-11-07T17:45:45.426Z,27.55
2022-11-07T17:48:12.779Z,26.85
2022-11-07T17:50:40.421Z,26.92
2022-11-07T17:53:08.001Z,25.67
2022-11-07T17:55:35.950Z,24.83
2022-11-07T17:58:03.292Z,25.65
2022-11-07T18:00:31.031Z,27.35
2022-11-07T18:02:58.666Z,30.52
2022-11-07T18:05:32.842Z,29.55
2022-11-07T18:08:00.770Z,29.25
2022-11-07T18:10:29.487Z,32.95
2022-11-07T18:12:57.670Z,30.02
2022-11-07T18:15:25.168Z,33.05
2022-11-07T18:17:52.602Z,40.08
2022-11-07T18:20:19.966Z,37.17
2022-11-07T18:22:47.497Z,37.42
2022-11-07T18:25:14.921Z,40.60
2022-11-07T18:27:42.273Z,43.75
2022-11-07T18:30:10.123Z,39.60
2022-11-07T18:32:38.101Z,45.38
2022-11-07T18:35:06.239Z,46.35
2022-11-07T18:37:33.856Z,43.25
2022-11-07T18:40:01.268Z,48.72
2022-11-07T18:42:29.353Z,49.90
2022-11-07T18:44:56.832Z,43.40
2022-11-07T18:47:24.269Z,38.17
2022-11-07T18:49:56.806Z,38.72
2022-11-07T18:52:24.659Z,37.50
2022-11-07T18:54:52.315Z,35.83
2022-11-07T18:57:19.792Z,35.67
2022-11-07T18:59:47.199Z,35.80
2022-11-07T19:02:15.574Z,31.25
2022-11-07T19:04:44.639Z,31.95
2022-11-07T19:07:12.167Z,31.88
2022-11-07T19:09:39.547Z,32.92
2022-11-07T19:12:07.036Z,32.60
2022-11-07T19:14:34.439Z,31.52
2022-11-07T19:17:01.902Z,29.65
2022-11-07T19:19:29.732Z,28.98
2022-11-07T19:21:57.183Z,25.73
2022-11-07T19:24:24.761Z,23.77
2022-11-07T19:26:52.398Z,23.33
2022-11-07T19:29:19.787Z,23.60
2022-11-07T19:31:47.296Z,24.52
2022-11-07T19:34:16.914Z,25.40
2022-11-07T19:36:44.285Z,26.95
2022-11-07T19:39:11.681Z,26.67
2022-11-07T19:41:39.080Z,25.90
2022-11-07T19:44:07.178Z,26.80
2022-11-07T19:46:34.545Z,24.00
2022-11-07T19:49:02.238Z,22.90
2022-11-07T19:51:29.583Z,22.15
2022-11-07T19:53:57.971Z,22.40
2022-11-07T19:56:26.551Z,21.90
2022-11-07T19:58:54.678Z,21.10
2022-11-07T20:01:24.242Z,21.42
2022-11-07T20:03:52.725Z,19.80
2022-11-07T20:06:21.869Z,21.80
2022-11-07T20:08:49.359Z,21.73
2022-11-07T20:11:18.520Z,19.85
2022-11-07T20:13:45.995Z,23.73
2022-11-07T20:16:13.684Z,23.95
2022-11-07T20:18:41.642Z,27.00
2022-11-07T20:21:12.803Z,26.70
2022-11-07T20:23:40.985Z,29.23
2022-11-07T20:26:09.418Z,31.73
2022-11-07T20:28:37.053Z,30.48
2022-11-07T20:31:14.596Z,26.75
2022-11-07T20:33:42.078Z,27.05
2022-11-07T20:36:12.887Z,30.13
2022-11-07T20:38:40.809Z,30.90
2022-11-07T20:41:08.599Z,27.80
2022-11-07T20:43:36.091Z,26.35
2022-11-07T20:46:09.705Z,26.27
2022-11-07T20:48:37.483Z,24.30
2022-11-07T20:51:15.270Z,24.38
2022-11-07T20:53:49.549Z,23.73
2022-11-07T20:56:18.216Z,23.90
2022-11-07T20:58:46.566Z,22.90
2022-11-07T21:01:15.223Z,24.27
2022-11-07T21:03:42.750Z,23.95
2022-11-07T21:06:13.419Z,22.15
2022-11-07T21:08:44.942Z,20.65
2022-11-07T21:11:13.156Z,21.38
2022-11-07T21:13:41.458Z,20.70
2022-11-07T21:16:09.437Z,22.88
2022-11-07T21:18:39.978Z,22.50
2022-11-07T21:21:12.019Z,26.92
2022-11-07T21:23:39.765Z,26.27
2022-11-07T21:26:11.482Z,26.70
2022-11-07T21:28:42.176Z,28.08
2022-11-07T21:31:11.754Z,27.85
2022-11-07T21:33:39.523Z,28.20
2022-11-07T21:36:11.323Z,26.10
2022-11-07T21:38:39.059Z,27.23
2022-11-07T21:41:07.185Z,26.85
2022-11-07T21:43:34.898Z,26.88
2022-11-07T21:46:13.564Z,28.98
2022-11-07T21:48:41.333Z,31.38
2022-11-07T21:51:11.166Z,31.50
2022-11-07T21:53:38.585Z,34.63
2022-11-07T21:56:06.831Z,36.45
2022-11-07T21:58:34.594Z,39.05
2022-11-07T22:01:02.887Z,41.03
2022-11-07T22:03:58.783Z,41.03
2022-11-07T22:06:19.646Z,40.35
2022-11-07T22:08:47.763Z,41.72
2022-11-07T22:11:15.606Z,40.45
2022-11-07T22:13:43.342Z,39.42
2022-11-07T22:16:15.010Z,39.35
2022-11-07T22:18:42.920Z,36.17
2022-11-07T22:21:12.076Z,35.15
2022-11-07T22:23:39.629Z,37.00
2022-11-07T22:26:08.460Z,39.92
2022-11-07T22:28:35.922Z,39.58
2022-11-07T22:31:07.145Z,39.80
2022-11-07T22:33:34.690Z,39.40
2022-11-07T22:36:02.494Z,37.40
2022-11-07T22:38:30.919Z,38.80
2022-11-07T22:40:58.366Z,35.80
2022-11-07T22:43:26.023Z,31.13
2022-11-07T22:45:53.847Z,31.65
2022-11-07T22:48:21.189Z,31.33
2022-11-07T22:50:48.603Z,30.05
2022-11-07T22:53:16.199Z,31.15
2022-11-07T22:55:43.862Z,29.27
2022-11-07T22:58:11.195Z,31.80
2022-11-07T23:00:38.667Z,32.20
2022-11-07T23:03:06.071Z,35.25
2022-11-07T23:05:35.315Z,35.50
2022-11-07T23:08:02.710Z,35.15
2022-11-07T23:10:30.169Z,33.55
2022-11-07T23:12:57.586Z,32.85
2022-11-07T23:15:25.028Z,35.70
2022-11-07T23:17:52.370Z,34.55
2022-11-07T23:20:38.259Z,32.38
2022-11-07T23:23:05.647Z,34.28
2022-11-07T23:25:33.131Z,32.42
2022-11-07T23:28:00.633Z,32.42
2022-11-07T23:30:28.050Z,32.25
2022-11-07T23:32:55.444Z,31.48
2022-11-07T23:35:22.863Z,32.67
2022-11-07T23:37:50.498Z,31.23
2022-11-07T23:40:18.063Z,32.08
2022-11-07T23:42:45.520Z,31.33
2022-11-07T23:45:31.626Z,30.15
2022-11-07T23:48:20.891Z,29.02
2022-11-07T23:51:03.424Z,29.05
2022-11-07T23:53:52.686Z,26.90
2022-11-07T23:56:20.659Z,25.15
2022-11-07T23:59:06.965Z,24.90
